South Windham, CT (06266)

1:22 PM EDT on April 27, 2015 (GMT -0400)
Charles H. Barrows STEM Academy | | Change Station
CLOSE
Current Station
Personal Weather Station
Location: Windham, CT
Elevation: 361 ft
Nearby Weather Stations

Elev 361 ft 41.72 °N, 72.18 °W | Updated 1 minute ago

Mostly Cloudy
Mostly Cloudy
56.5 °F
Feels Like 56.5 °F
N
21.0
Wind Variable Wind from NNE

Today
High -- | Low -- °F
--% Chance of Precip.
Yesterday
High -- | Low -- °F
Precip. -- in
5:51 AM 7:42 PM
Waxing Gibbous, 66% visible
Pressure 29.59 in
Visibility 10.0 miles
Clouds Mostly Cloudy 6000 ft
Dew Point 30 °F
Humidity 37%
Rainfall 0.00 in
Snow Depth Not available.
UV 6 out of 12
Pollen 10.30 out of 12
Air Quality Not available.
Flu Activity Widespread
METAR KIJD 271652Z AUTO 33010G19KT 10SM BKN060 14/01 A2959 RMK AO2 SLP019 T01390006

More Conditions Fewer Conditions

Pressure 29.59 in
Visibility 10.0 miles
Clouds Mostly Cloudy 6000 ft
Dew Point 30 °F
Humidity 37%
Rainfall 0.00 in
Snow Depth Not available.
UV 6 out of 12
Pollen 10.30 out of 12
Air Quality Not available.
Flu Activity Widespread
METAR KIJD 271652Z AUTO 33010G19KT 10SM BKN060 14/01 A2959 RMK AO2 SLP019 T01390006

More Conditions Fewer Conditions

10-Day Weather Forecast

Almanac

Astronomy

Apr. 27, 2015 Rise Set
Actual Time
Civil Twilight
Nautical Twilight
Astronomical Twilight
Moon
Length of Visible Light
Length of Day
Tomorrow will be .
, % of the Moon is Illuminated

Today's Extremes

State Highs State Lows

Community

WunderPhotos

Upload Photos

1,817,353 photos uploaded!

WunderBlogs® & News

Nearby

Air Quality

  Air Quality AQ Index Pollutant
Not available.

Snow Depth

Station Depth Elevation

Earthquake Activity

City Distance Mag. Time & Date
Minimum magnitude displayed is 2.5.

Coastal Water Temperatures

Place Temperature

Stations

Nearby Weather Stations

Station Location Temp. Windchill Dew Point Humidity Wind Precip. Elev Updated Type